createdAt,value
2018-12-14T00:01:23.731Z,-1.10
2018-12-14T00:03:51.906Z,-1.30
2018-12-14T00:06:20.106Z,-1.30
2018-12-14T00:08:48.340Z,-1.30
2018-12-14T00:11:16.495Z,-0.70
2018-12-14T00:13:44.706Z,-0.70
2018-12-14T00:16:12.875Z,-1.00
2018-12-14T00:18:41.026Z,-1.00
2018-12-14T00:21:09.340Z,-1.00
2018-12-14T00:23:37.514Z,-1.10
2018-12-14T00:26:05.666Z,-1.00
2018-12-14T00:28:33.847Z,-1.00
2018-12-14T00:31:02.077Z,-1.00
2018-12-14T00:33:30.210Z,-1.00
2018-12-14T00:35:58.387Z,-0.60
2018-12-14T00:38:26.582Z,-0.80
2018-12-14T00:40:54.861Z,-0.80
2018-12-14T00:43:23.012Z,-0.90
2018-12-14T00:45:51.344Z,-0.50
2018-12-14T00:48:19.619Z,-0.60
2018-12-14T00:50:47.847Z,-0.80
2018-12-14T00:53:16.379Z,-1.00
2018-12-14T00:55:44.696Z,-1.10
2018-12-14T00:58:12.888Z,-0.70
2018-12-14T01:00:41.012Z,-0.70
2018-12-14T01:03:09.158Z,-1.10
2018-12-14T01:05:37.384Z,-0.70
2018-12-14T01:08:05.559Z,-0.80
2018-12-14T01:10:33.937Z,-1.00
2018-12-14T01:13:02.095Z,-1.00
2018-12-14T01:15:30.269Z,-1.00
2018-12-14T01:17:58.431Z,-1.10
2018-12-14T01:20:27.926Z,-1.10
2018-12-14T01:22:56.080Z,-0.70
2018-12-14T01:25:24.235Z,-1.00
2018-12-14T01:27:52.412Z,-1.10
2018-12-14T01:30:20.669Z,-1.10
2018-12-14T01:32:49.279Z,-1.00
2018-12-14T01:35:17.519Z,-1.00
2018-12-14T01:37:45.682Z,-1.00
2018-12-14T01:40:13.872Z,-1.10
2018-12-14T01:42:42.020Z,-1.00
2018-12-14T01:45:10.312Z,-1.00
2018-12-14T01:47:38.481Z,-1.00
2018-12-14T01:50:06.794Z,-1.10
2018-12-14T01:52:35.275Z,-1.10
2018-12-14T01:55:03.679Z,-0.70
2018-12-14T01:57:32.003Z,-0.80
2018-12-14T02:00:00.237Z,-1.00
2018-12-14T02:02:28.455Z,-1.00
2018-12-14T02:04:56.598Z,-0.70
2018-12-14T02:07:24.871Z,-1.00
2018-12-14T02:09:53.170Z,-1.00
2018-12-14T02:12:21.433Z,-1.00
2018-12-14T02:14:49.730Z,-1.00
2018-12-14T02:17:18.123Z,-1.10
2018-12-14T02:19:46.323Z,-0.80
2018-12-14T02:22:14.499Z,-1.00
2018-12-14T02:24:42.800Z,-1.20
2018-12-14T02:27:10.979Z,-1.20
2018-12-14T02:29:39.160Z,-1.30
2018-12-14T02:32:07.885Z,-1.20
2018-12-14T02:34:36.126Z,-1.20
2018-12-14T02:37:04.546Z,-1.00
2018-12-14T02:39:32.782Z,-1.00
2018-12-14T02:42:00.963Z,-1.10
2018-12-14T02:44:29.294Z,-1.10
2018-12-14T02:46:57.499Z,-1.00
2018-12-14T02:49:25.686Z,-1.00
2018-12-14T02:51:53.826Z,-1.20
2018-12-14T02:54:21.993Z,-1.20
2018-12-14T02:56:50.372Z,-1.30
2018-12-14T02:59:18.583Z,-1.30
2018-12-14T03:01:46.811Z,-1.10
2018-12-14T03:04:15.086Z,-1.30
2018-12-14T03:06:43.391Z,-1.00
2018-12-14T03:09:11.687Z,-1.20
2018-12-14T03:11:39.909Z,-1.30
2018-12-14T03:14:08.381Z,-1.30
2018-12-14T03:16:36.593Z,-1.00
2018-12-14T03:19:04.892Z,-1.20
2018-12-14T03:21:33.093Z,-1.50
2018-12-14T03:24:01.409Z,-1.30
2018-12-14T03:26:29.603Z,-1.30
2018-12-14T03:28:57.760Z,-1.30
2018-12-14T03:31:25.917Z,-1.30
2018-12-14T03:33:54.145Z,-1.30
2018-12-14T03:36:22.296Z,-1.40
2018-12-14T03:38:51.519Z,-1.30
2018-12-14T03:41:19.874Z,-1.30
2018-12-14T03:43:48.265Z,-1.10
2018-12-14T03:46:16.510Z,-1.30
2018-12-14T03:48:44.716Z,-1.20
2018-12-14T03:51:13.085Z,-1.20
2018-12-14T03:53:41.263Z,-1.20
2018-12-14T03:56:09.479Z,-1.10
2018-12-14T03:58:38.225Z,-1.30
2018-12-14T04:01:06.427Z,-1.30
2018-12-14T04:03:34.619Z,-1.30
2018-12-14T04:06:03.080Z,-1.40
2018-12-14T04:08:31.297Z,-1.30
2018-12-14T04:10:59.432Z,-1.20
2018-12-14T04:13:28.679Z,-1.20
2018-12-14T04:15:57.073Z,-1.30
2018-12-14T04:18:25.463Z,-1.00
2018-12-14T04:20:53.682Z,-1.10
2018-12-14T04:23:21.896Z,-1.30
2018-12-14T04:25:50.162Z,-1.30
2018-12-14T04:28:18.462Z,-1.30
2018-12-14T04:30:46.620Z,-1.30
2018-12-14T04:33:15.884Z,-1.30
2018-12-14T04:35:44.013Z,-1.50
2018-12-14T04:38:12.309Z,-1.40
2018-12-14T04:40:40.558Z,-1.40
2018-12-14T04:43:08.715Z,-1.50
2018-12-14T04:45:37.007Z,-1.50
2018-12-14T04:48:05.244Z,-1.60
2018-12-14T04:50:33.402Z,-1.20
2018-12-14T04:53:01.933Z,-1.50
2018-12-14T04:55:30.071Z,-1.50
2018-12-14T04:57:58.295Z,-1.50
2018-12-14T05:00:26.499Z,-1.60
2018-12-14T05:02:54.737Z,-1.40
2018-12-14T05:05:22.936Z,-1.30
2018-12-14T05:07:51.264Z,-1.50
2018-12-14T05:10:19.709Z,-1.30
2018-12-14T05:12:47.856Z,-1.60
2018-12-14T05:15:16.083Z,-1.20
2018-12-14T05:17:44.224Z,-1.50
2018-12-14T05:20:12.515Z,-1.50
2018-12-14T05:22:40.658Z,-1.50
2018-12-14T05:25:08.885Z,-1.20
2018-12-14T05:27:37.136Z,-1.50
2018-12-14T05:30:06.272Z,-1.20
2018-12-14T05:32:34.492Z,-1.50
2018-12-14T05:35:02.840Z,-1.40
2018-12-14T05:37:30.990Z,-1.30
2018-12-14T05:43:02.997Z,-1.20
2018-12-14T05:45:31.222Z,-1.20
2018-12-14T05:47:59.531Z,-1.20
2018-12-14T05:50:27.861Z,-1.40
2018-12-14T05:52:56.191Z,-1.50
2018-12-14T05:55:24.358Z,-1.50
2018-12-14T05:57:53.559Z,-1.50
2018-12-14T06:00:22.909Z,-1.60
2018-12-14T06:02:51.182Z,-1.30
2018-12-14T06:05:19.462Z,-1.70
2018-12-14T06:07:47.608Z,-1.70
2018-12-14T06:10:16.019Z,-1.50
2018-12-14T06:12:44.165Z,-1.50
2018-12-14T06:15:12.371Z,-1.70
2018-12-14T06:17:40.862Z,-1.70
2018-12-14T06:20:09.102Z,-1.40
2018-12-14T06:22:37.295Z,-1.70
2018-12-14T06:25:05.661Z,-1.60
2018-12-14T06:27:33.849Z,-1.80
2018-12-14T06:30:02.288Z,-1.70
2018-12-14T06:32:30.496Z,-1.70
2018-12-14T06:34:58.831Z,-1.60
2018-12-14T06:37:28.647Z,-1.80
2018-12-14T06:40:00.630Z,-1.60
2018-12-14T06:42:29.042Z,-1.50
2018-12-14T06:47:58.228Z,-2.00
2018-12-14T06:50:28.060Z,-1.70
2018-12-14T06:52:56.655Z,-1.70
2018-12-14T06:58:17.792Z,-1.90
2018-12-14T07:00:51.907Z,-2.20
2018-12-14T07:03:20.066Z,-2.20
2018-12-14T07:06:08.196Z,-2.30
2018-12-14T07:08:36.614Z,-2.30
2018-12-14T07:11:04.949Z,-2.20
2018-12-14T07:13:33.354Z,-2.20
2018-12-14T07:16:05.748Z,-2.20
2018-12-14T07:18:37.172Z,-2.20
2018-12-14T07:21:09.287Z,-2.10
2018-12-14T07:23:47.601Z,-2.10
2018-12-14T07:26:34.236Z,-2.20
2018-12-14T07:29:02.855Z,-2.10
2018-12-14T07:31:38.968Z,-2.00
2018-12-14T07:34:11.051Z,-1.80
2018-12-14T07:36:45.131Z,-1.70
2018-12-14T07:39:18.413Z,-1.90
2018-12-14T07:41:53.232Z,-1.70
2018-12-14T07:44:29.022Z,-1.60
2018-12-14T07:47:02.881Z,-1.50
2018-12-14T07:49:39.910Z,-1.70
2018-12-14T07:52:18.117Z,-1.80
2018-12-14T07:54:52.236Z,-1.80
2018-12-14T07:57:21.992Z,-1.70
2018-12-14T07:59:58.493Z,-1.50
2018-12-14T08:02:30.352Z,-1.50
2018-12-14T08:05:01.650Z,-1.50
2018-12-14T08:07:31.230Z,-1.50
2018-12-14T08:09:59.478Z,-1.00
2018-12-14T08:12:33.730Z,-1.20
2018-12-14T08:15:12.047Z,-1.50
2018-12-14T08:17:46.887Z,-1.50
2018-12-14T08:20:20.772Z,-1.80
2018-12-14T08:22:49.721Z,-1.60
2018-12-14T08:25:18.723Z,-1.80
2018-12-14T08:27:48.976Z,-1.70
2018-12-14T08:30:18.722Z,-1.50
2018-12-14T08:32:46.883Z,-1.60
2018-12-14T08:35:15.395Z,-1.30
2018-12-14T08:37:43.624Z,-1.60
2018-12-14T08:40:11.853Z,-1.30
2018-12-14T08:42:40.170Z,-1.50
2018-12-14T08:45:08.481Z,-1.40
2018-12-14T08:47:36.674Z,-1.30
2018-12-14T08:50:05.195Z,-1.00
2018-12-14T08:52:33.465Z,-1.10
2018-12-14T08:55:01.641Z,-1.10
2018-12-14T08:57:29.822Z,-1.10
2018-12-14T08:59:58.212Z,-0.80
2018-12-14T09:02:26.481Z,-0.80
2018-12-14T09:04:54.767Z,-1.00
2018-12-14T09:07:24.690Z,-0.70
2018-12-14T09:09:53.144Z,-1.10
2018-12-14T09:12:21.327Z,-0.50
2018-12-14T09:14:49.490Z,-0.50
2018-12-14T09:17:17.676Z,-0.50
2018-12-14T09:19:45.854Z,-0.50
2018-12-14T09:22:14.114Z,-0.80
2018-12-14T09:24:42.323Z,-0.80
2018-12-14T09:27:10.540Z,-0.50
2018-12-14T09:29:38.728Z,-0.80
2018-12-14T09:32:07.020Z,-0.70
2018-12-14T09:34:35.290Z,-0.80
2018-12-14T09:37:03.623Z,-0.60
2018-12-14T09:39:32.014Z,-0.60
2018-12-14T09:42:00.300Z,-0.90
2018-12-14T09:44:28.627Z,-0.80
2018-12-14T09:46:56.883Z,-0.60
2018-12-14T09:49:25.197Z,-0.80
2018-12-14T09:51:53.416Z,-0.60
2018-12-14T09:54:21.731Z,-0.80
2018-12-14T09:56:49.903Z,-0.50
2018-12-14T09:59:18.096Z,-0.30
2018-12-14T10:01:46.304Z,-0.70
2018-12-14T10:04:14.532Z,-0.40
2018-12-14T10:06:42.712Z,-0.30
2018-12-14T10:09:10.986Z,-0.60
2018-12-14T10:11:39.206Z,-0.50
2018-12-14T10:14:07.447Z,-0.30
2018-12-14T10:16:35.691Z,-0.50
2018-12-14T10:19:05.334Z,-0.40
2018-12-14T10:21:33.594Z,-0.20
2018-12-14T10:24:01.922Z,-0.20
2018-12-14T10:26:30.128Z,-0.50
2018-12-14T10:29:29.595Z,-0.40
2018-12-14T10:31:58.740Z,-0.50
2018-12-14T10:34:26.921Z,-0.30
2018-12-14T10:37:10.747Z,-0.30
2018-12-14T10:39:38.927Z,-0.80
2018-12-14T10:45:06.147Z,-0.60
2018-12-14T10:47:37.582Z,-0.80
2018-12-14T10:50:05.958Z,-0.80
2018-12-14T10:58:00.032Z,-0.80
2018-12-14T11:00:33.637Z,-0.50
2018-12-14T11:03:01.926Z,-0.50
2018-12-14T11:05:32.633Z,-0.50
2018-12-14T11:08:00.895Z,-0.50
2018-12-14T11:10:29.119Z,-0.30
2018-12-14T11:12:57.415Z,-0.20
2018-12-14T11:15:25.652Z,-0.50
2018-12-14T11:17:54.003Z,-0.40
2018-12-14T11:20:22.156Z,-0.20
2018-12-14T11:22:50.387Z,-0.50
2018-12-14T11:25:18.625Z,-0.40
2018-12-14T11:27:46.763Z,-0.60
2018-12-14T11:30:14.950Z,-0.40
2018-12-14T11:32:43.098Z,-0.20
2018-12-14T11:35:11.367Z,-0.60
2018-12-14T11:37:39.511Z,-0.60
2018-12-14T11:40:08.640Z,-0.40
2018-12-14T11:42:36.931Z,-0.50
2018-12-14T11:45:06.611Z,-0.20
2018-12-14T11:47:34.758Z,0.10
2018-12-14T11:58:11.591Z,-0.20
2018-12-14T12:00:39.816Z,-0.60
2018-12-14T12:03:08.082Z,-0.20
2018-12-14T12:05:36.298Z,-0.80
2018-12-14T12:08:05.039Z,-0.80
2018-12-14T12:10:33.219Z,-0.70
2018-12-14T12:13:01.346Z,-0.30
2018-12-14T12:15:29.530Z,-0.40
2018-12-14T12:17:57.764Z,-0.80
2018-12-14T12:20:25.986Z,-0.80
2018-12-14T12:22:54.155Z,-0.80
2018-12-14T12:25:22.308Z,-0.80
2018-12-14T12:27:50.459Z,-0.70
2018-12-14T12:30:18.750Z,-0.80
2018-12-14T12:32:48.165Z,-0.80
2018-12-14T12:35:16.536Z,-0.80
2018-12-14T12:37:44.741Z,-0.70
2018-12-14T12:40:13.024Z,-0.20
2018-12-14T12:42:41.192Z,-0.80
2018-12-14T12:45:09.439Z,-0.70
2018-12-14T12:47:37.582Z,-0.80
2018-12-14T12:50:05.839Z,-0.70
2018-12-14T12:52:33.994Z,-0.70
2018-12-14T12:55:02.238Z,-0.50
2018-12-14T12:57:46.703Z,-1.00
2018-12-14T13:00:16.441Z,-1.00
2018-12-14T13:02:44.719Z,-1.00
2018-12-14T13:05:12.983Z,-1.00
2018-12-14T13:07:41.143Z,-1.00
2018-12-14T13:10:09.418Z,-1.00
2018-12-14T13:12:37.668Z,-1.00
2018-12-14T13:15:06.604Z,-1.00
2018-12-14T13:17:34.799Z,-1.10
2018-12-14T13:20:03.096Z,-1.00
2018-12-14T13:22:31.245Z,-1.00
2018-12-14T13:24:59.471Z,-1.00
2018-12-14T13:27:27.628Z,-1.00
2018-12-14T13:29:55.783Z,-0.70
2018-12-14T13:32:24.033Z,-1.10
2018-12-14T13:34:52.176Z,-0.70
2018-12-14T13:37:20.386Z,-0.70
2018-12-14T13:39:48.599Z,-0.70
2018-12-14T13:42:16.814Z,-1.00
2018-12-14T13:44:46.753Z,-1.00
2018-12-14T13:47:15.225Z,-0.90
2018-12-14T13:49:43.590Z,-1.00
2018-12-14T13:52:11.949Z,-1.00
2018-12-14T13:54:40.103Z,-1.00
2018-12-14T13:57:08.309Z,-1.10
2018-12-14T13:59:36.483Z,-1.30
2018-12-14T14:02:10.999Z,-1.30
2018-12-14T14:04:39.182Z,-1.30
2018-12-14T14:07:07.421Z,-1.30
2018-12-14T14:09:35.698Z,-1.30
2018-12-14T14:12:03.954Z,-1.30
2018-12-14T14:14:32.492Z,-1.40
2018-12-14T14:17:00.920Z,-1.40
2018-12-14T14:19:29.167Z,-1.40
2018-12-14T14:21:57.370Z,-1.40
2018-12-14T14:24:25.572Z,-1.50
2018-12-14T14:26:53.827Z,-1.50
2018-12-14T14:29:22.495Z,-1.50
2018-12-14T14:31:50.674Z,-1.50
2018-12-14T14:34:18.845Z,-1.50
2018-12-14T14:36:50.383Z,-1.70
2018-12-14T14:39:18.563Z,-1.50
2018-12-14T14:41:46.764Z,-1.60
2018-12-14T14:44:15.089Z,-1.30
2018-12-14T14:46:43.254Z,-1.60
2018-12-14T14:49:11.542Z,-1.80
2018-12-14T14:51:39.889Z,-1.50
2018-12-14T14:54:08.164Z,-1.80
2018-12-14T14:56:36.327Z,-1.70
2018-12-14T14:59:04.540Z,-1.90
2018-12-14T15:01:32.895Z,-1.70
2018-12-14T15:04:02.185Z,-1.90
2018-12-14T15:06:30.360Z,-1.90
2018-12-14T15:08:58.843Z,-1.60
2018-12-14T15:11:27.007Z,-1.50
2018-12-14T15:13:55.371Z,-1.70
2018-12-14T15:16:23.625Z,-1.60
2018-12-14T15:18:51.815Z,-1.90
2018-12-14T15:21:20.010Z,-1.80
2018-12-14T15:23:48.275Z,-1.70
2018-12-14T15:26:18.520Z,-1.60
2018-12-14T15:28:46.682Z,-1.80
2018-12-14T15:31:14.847Z,-1.60
2018-12-14T15:33:43.102Z,-2.00
2018-12-14T15:36:11.975Z,-1.80
2018-12-14T15:38:40.215Z,-1.50
2018-12-14T15:41:08.431Z,-1.70
2018-12-14T15:43:36.663Z,-1.50
2018-12-14T15:46:04.827Z,-2.00
2018-12-14T15:48:33.092Z,-1.70
2018-12-14T15:51:01.382Z,-1.80
2018-12-14T15:56:38.479Z,-2.20
2018-12-14T15:59:06.763Z,-2.10
2018-12-14T16:01:35.008Z,-1.80
2018-12-14T16:04:07.008Z,-2.10
2018-12-14T16:06:41.464Z,-1.90
2018-12-14T16:09:15.610Z,-2.10
2018-12-14T16:11:50.475Z,-2.00
2018-12-14T16:14:25.906Z,-1.80
2018-12-14T16:16:57.528Z,-1.90
2018-12-14T16:22:46.545Z,-1.70
2018-12-14T16:28:00.078Z,-1.90
2018-12-14T16:30:31.559Z,-2.00
2018-12-14T16:39:17.811Z,-1.90
2018-12-14T16:41:49.219Z,-1.90
2018-12-14T16:44:21.242Z,-1.90
2018-12-14T16:46:51.031Z,-1.90
2018-12-14T16:49:23.156Z,-2.00
2018-12-14T16:51:55.244Z,-2.00
2018-12-14T16:54:23.499Z,-2.00
2018-12-14T16:56:51.755Z,-1.90
2018-12-14T16:59:20.112Z,-2.00
2018-12-14T17:01:48.538Z,-1.60
2018-12-14T17:04:16.887Z,-2.00
2018-12-14T17:06:45.463Z,-2.00
2018-12-14T17:09:13.649Z,-2.10
2018-12-14T17:11:41.902Z,-2.00
2018-12-14T17:14:10.144Z,-2.00
2018-12-14T17:16:40.323Z,-2.10
2018-12-14T17:19:08.514Z,-1.80
2018-12-14T17:21:36.784Z,-1.70
2018-12-14T17:24:05.103Z,-1.80
2018-12-14T17:26:33.334Z,-2.00
2018-12-14T17:29:01.604Z,-2.00
2018-12-14T17:31:29.770Z,-2.00
2018-12-14T17:33:58.103Z,-1.90
2018-12-14T17:36:26.270Z,-1.80
2018-12-14T17:38:54.698Z,-2.00
2018-12-14T17:41:22.939Z,-2.10
2018-12-14T17:43:51.135Z,-1.80
2018-12-14T17:46:19.442Z,-2.00
2018-12-14T17:48:47.666Z,-2.00
2018-12-14T17:51:15.859Z,-2.10
2018-12-14T17:53:44.078Z,-1.90
2018-12-14T17:56:12.250Z,-2.30
2018-12-14T17:58:40.438Z,-2.00
2018-12-14T18:01:08.589Z,-2.10
2018-12-14T18:03:36.770Z,-1.80
2018-12-14T18:06:05.089Z,-1.70
2018-12-14T18:08:33.370Z,-2.00
2018-12-14T18:11:01.550Z,-2.00
2018-12-14T18:13:29.887Z,-2.00
2018-12-14T18:15:58.727Z,-2.00
2018-12-14T18:18:26.918Z,-2.00
2018-12-14T18:20:55.221Z,-1.80
2018-12-14T18:23:23.427Z,-1.90
2018-12-14T18:25:51.611Z,-1.90
2018-12-14T18:28:19.769Z,-1.90
2018-12-14T18:30:48.331Z,-1.90
2018-12-14T18:33:16.574Z,-2.10
2018-12-14T18:35:44.748Z,-1.90
2018-12-14T18:38:13.031Z,-1.80
2018-12-14T18:40:41.220Z,-2.20
2018-12-14T18:43:09.389Z,-2.00
2018-12-14T18:45:37.719Z,-2.00
2018-12-14T18:48:06.052Z,-2.10
2018-12-14T18:50:34.242Z,-2.00
2018-12-14T18:53:02.427Z,-2.00
2018-12-14T18:55:30.610Z,-2.00
2018-12-14T18:58:00.390Z,-2.10
2018-12-14T19:00:28.632Z,-2.00
2018-12-14T19:02:56.927Z,-1.80
2018-12-14T19:05:25.090Z,-2.10
2018-12-14T19:07:53.250Z,-1.80
2018-12-14T19:10:21.455Z,-2.00
2018-12-14T19:12:49.652Z,-2.10
2018-12-14T19:15:17.969Z,-1.90
2018-12-14T19:17:46.122Z,-2.10
2018-12-14T19:20:14.396Z,-1.90
2018-12-14T19:22:42.612Z,-2.00
2018-12-14T19:25:10.882Z,-1.80
2018-12-14T19:27:39.055Z,-2.00
2018-12-14T19:30:07.743Z,-1.90
2018-12-14T19:32:35.944Z,-2.00
2018-12-14T19:35:05.226Z,-1.80
2018-12-14T19:37:33.405Z,-2.10
2018-12-14T19:40:03.017Z,-2.30
2018-12-14T19:42:31.322Z,-1.80
2018-12-14T19:44:59.506Z,-2.20
2018-12-14T19:47:27.692Z,-2.10
2018-12-14T19:49:55.916Z,-2.40
2018-12-14T19:52:24.155Z,-2.10
2018-12-14T19:54:52.457Z,-2.20
2018-12-14T19:57:26.719Z,-2.20
2018-12-14T19:59:54.892Z,-2.10
2018-12-14T20:02:23.204Z,-2.10
2018-12-14T20:04:51.398Z,-2.20
2018-12-14T20:07:19.569Z,-2.20
2018-12-14T20:09:47.957Z,-2.20
2018-12-14T20:12:16.270Z,-2.20
2018-12-14T20:14:44.421Z,-2.20
2018-12-14T20:17:12.748Z,-2.10
2018-12-14T20:19:40.992Z,-1.80
2018-12-14T20:22:09.262Z,-2.30
2018-12-14T20:24:37.520Z,-2.20
2018-12-14T20:27:05.719Z,-2.10
2018-12-14T20:29:33.863Z,-2.20
2018-12-14T20:32:02.111Z,-2.30
2018-12-14T20:34:30.590Z,-2.30
2018-12-14T20:36:58.816Z,-2.00
2018-12-14T20:39:27.055Z,-1.90
2018-12-14T20:41:55.397Z,-2.10
2018-12-14T20:44:23.580Z,-1.80
2018-12-14T20:46:51.740Z,-2.20
2018-12-14T20:49:19.947Z,-2.10
2018-12-14T20:51:48.243Z,-1.90
2018-12-14T20:54:16.417Z,-2.20
2018-12-14T20:56:44.674Z,-2.10
2018-12-14T20:59:12.974Z,-2.00
2018-12-14T21:01:41.278Z,-2.30
2018-12-14T21:04:09.587Z,-1.80
2018-12-14T21:06:37.822Z,-2.00
2018-12-14T21:09:07.222Z,-1.80
2018-12-14T21:11:35.463Z,-2.00
2018-12-14T21:14:03.704Z,-1.70
2018-12-14T21:16:32.123Z,-1.80
2018-12-14T21:19:00.350Z,-2.00
2018-12-14T21:21:28.631Z,-2.20
2018-12-14T21:23:56.769Z,-2.00
2018-12-14T21:26:24.980Z,-1.80
2018-12-14T21:28:53.229Z,-2.00
2018-12-14T21:31:25.187Z,-2.30
2018-12-14T21:33:53.417Z,-2.20
2018-12-14T21:36:21.538Z,-2.00
2018-12-14T21:38:49.687Z,-1.90
2018-12-14T21:41:17.930Z,-1.90
2018-12-14T21:43:46.094Z,-1.90
2018-12-14T21:46:14.508Z,-1.90
2018-12-14T21:48:42.746Z,-2.10
2018-12-14T21:51:10.918Z,-2.10
2018-12-14T21:53:39.106Z,-2.00
2018-12-14T21:56:07.278Z,-1.90
2018-12-14T21:58:35.595Z,-1.90
2018-12-14T22:01:03.899Z,-1.90
2018-12-14T22:03:32.323Z,-1.90
2018-12-14T22:06:00.739Z,-2.30
2018-12-14T22:08:28.953Z,-1.90
2018-12-14T22:10:57.215Z,-2.10
2018-12-14T22:13:25.394Z,-1.90
2018-12-14T22:15:53.610Z,-2.30
2018-12-14T22:18:21.809Z,-1.80
2018-12-14T22:20:50.141Z,-2.20
2018-12-14T22:23:18.347Z,-2.20
2018-12-14T22:25:46.549Z,-2.10
2018-12-14T22:28:14.710Z,-2.30
2018-12-14T22:30:42.870Z,-2.20
2018-12-14T22:33:11.177Z,-2.10
2018-12-14T22:35:39.334Z,-1.80
2018-12-14T22:38:08.067Z,-2.20
2018-12-14T22:40:36.256Z,-2.30
2018-12-14T22:43:04.602Z,-2.30
2018-12-14T22:45:32.954Z,-2.30
2018-12-14T22:48:01.215Z,-2.30
2018-12-14T22:50:29.391Z,-2.20
2018-12-14T22:52:58.282Z,-2.20
2018-12-14T22:55:26.505Z,-2.20
2018-12-14T22:57:54.823Z,-2.10
2018-12-14T23:00:23.286Z,-2.00
2018-12-14T23:02:51.576Z,-2.30
2018-12-14T23:05:19.829Z,-2.00
2018-12-14T23:07:48.147Z,-2.20
2018-12-14T23:10:16.423Z,-2.20
2018-12-14T23:12:44.663Z,-2.20
2018-12-14T23:15:12.951Z,-2.10
2018-12-14T23:17:41.107Z,-2.20
2018-12-14T23:20:09.314Z,-2.20
2018-12-14T23:22:37.551Z,-2.10
2018-12-14T23:25:05.885Z,-2.00
2018-12-14T23:27:34.119Z,-2.30
2018-12-14T23:30:02.396Z,-2.30
2018-12-14T23:32:30.680Z,-2.20
2018-12-14T23:34:59.054Z,-2.30
2018-12-14T23:37:27.210Z,-2.20
2018-12-14T23:39:55.667Z,-2.10
2018-12-14T23:42:23.911Z,-2.20
2018-12-14T23:44:52.276Z,-2.00
2018-12-14T23:47:20.501Z,-2.30
2018-12-14T23:49:48.870Z,-2.00
2018-12-14T23:52:17.128Z,-2.20
2018-12-14T23:54:45.353Z,-2.20
2018-12-14T23:57:13.665Z,-2.20
2018-12-14T23:59:42.831Z,-2.20
